METAR Data
IDs: Format: Raw Decoded Include TAF

Data at: 2322 UTC 25 Oct 2021

KBPT 252253Z 14006KT 9SM CLR 27/24 A2991 RMK AO2 SLP128 T02670239 $
KBPT 252201Z 08007KT 10SM SCT032 BKN043 29/24 A2991 RMK AO2 T02890239 $
KBPT 252153Z 07008KT 9SM BKN032 OVC043 29/24 A2991 RMK AO2 SLP128 T02890239 $
KBPT 252053Z VRB03KT 10SM BKN037 32/23 A2991 RMK AO2 SLP128 T03170228 56014 $
KBPT 252000Z VRB03KT 10SM BKN035 BKN047 32/23 A2991 RMK AO2 T03170233
KBPT 251953Z 34005KT 10SM BKN028 31/23 A2991 RMK AO2 SLP129 T03110233
KBPT 251904Z 00000KT 10SM BKN028 31/23 A2993 RMK AO2 T03060228
KBPT 251900Z 00000KT 10SM CLR 31/23 A2993 RMK AO2 T03060233
KBPT 251853Z 28004KT 10SM BKN025 29/23 A2993 RMK AO2 SLP135 T02940228
KBPT 251753Z VRB06KT 10SM BKN024 30/23 A2995 RMK AO2 SLP142 T03000233 10306 20200 58011
KBPT 251653Z 27005KT 9SM BKN015 28/24 A2997 RMK AO2 SLP148 T02780239
KBPT 251553Z 29004KT 10SM OVC004 26/24 A2998 RMK AO2 SLP151 T02560244
KBPT 251533Z 31004KT 8SM OVC004 24/24 A2998 RMK AO2 T02390239
KBPT 251520Z 29005KT 9SM OVC005 24/24 A2998 RMK AO2 CIG 003V009 T02390239
KBPT 251453Z 27005KT 8SM R12/4500VP6000FT OVC003 24/24 A2998 RMK AO2 CIG 002V006 SLP153 T02390239 51020
KBPT 251435Z 31006KT 3SM BR OVC002 24/24 A2998 RMK AO2 T02440244
KBPT 251431Z 29005KT 1 1/2SM R12/4000VP6000FT BR OVC002 24/24 A2998 RMK AO2 T02440244
KBPT 251423Z 30004KT 1/2SM R12/1600VP6000FT FG VV002 24/24 A2998 RMK AO2 T02390239
KBPT 251353Z 33003KT 1/4SM R12/1200V1400FT FG VV002 23/23 A2997 RMK AO2 SLP149 T02330233
KBPT 251315Z 33003KT 1/4SM R12/1000V1200FT FG VV002 22/22 A2996 RMK AO2 T02220222
KBPT 251305Z 33005KT 1/4SM R12/1200V3000FT FG VV002 22/22 A2996 RMK AO2 T02220222
KBPT 251253Z 1/2SM R12/2600V4000FT FG VV003 22/22 A2995 RMK AO2 SLP142 T02170217
KBPT 251243Z 35004KT 1/4SM R12/1800V2600FT FG VV002 21/21 A2995 RMK AO2 T02110211
KBPT 251217Z 00000KT 1/4SM R12/1400V2200FT FG VV002 21/21 A2994 RMK AO2 T02060206 $
KBPT 251153Z 00000KT 1/2SM R12/2800V4000FT FG VV002 21/21 A2993 RMK AO2 SLP133 T02060206 10217 20194 53006 $
KBPT 251053Z 00000KT 1/2SM R12/2800V4500FT FG VV002 21/21 A2991 RMK AO2 SLP128 T02060206 $
KBPT 251008Z AUTO 00000KT 1/2SM R12/1600V5000FT FG VV002 20/20 A2990 RMK AO2 T02000200 $
KBPT 250953Z AUTO 00000KT 1/4SM R12/1800V2200FT FG VV002 21/21 A2990 RMK AO2 SLP125 T02060206 $
KBPT 250950Z AUTO 00000KT 1/4SM R12/2000V2200FT FG VV002 20/20 A2990 RMK AO2 $
KBPT 250853Z AUTO 26003KT 1/2SM R12/4000V6000FT FG VV003 21/21 A2991 RMK AO2 SLP126 T02110211 51004 $
KBPT 250842Z AUTO 00000KT 1/2SM R12/2600V3000FT FG VV002 21/21 A2991 RMK AO2 T02110211 $
KBPT 250831Z AUTO 26003KT 1/4SM R12/2000V2400FT FG VV002 22/22 A2991 RMK AO2 T02170217 $
KBPT 250808Z AUTO 00000KT 1/2SM R12/1800V4500FT FG VV002 21/21 A2991 RMK AO2 T02060206 $
KBPT 250753Z AUTO 00000KT 1/4SM R12/1200V1400FT FG VV002 21/21 A2991 RMK AO2 SLP127 T02110211 $
KBPT 250744Z AUTO 00000KT 1/4SM R12/1400V2200FT FG VV002 21/21 A2991 RMK AO2 T02110211 $
KBPT 250723Z AUTO 00000KT 1/4SM R12/1600V2800FT FG VV003 21/21 A2991 RMK AO2 T02060206 $
KBPT 250712Z AUTO 00000KT 1/2SM R12/2600V4500FT FG VV004 21/21 A2991 RMK AO2 T02060206 $
KBPT 250704Z AUTO 00000KT 1/2SM R12/2400VP6000FT FG VV005 20/20 A2991 RMK AO2 T02000200 $
KBPT 250653Z AUTO 00000KT 3/4SM R12/P6000FT BR VV004 21/21 A2990 RMK AO2 SLP126 T02060206 $
KBPT 250642Z AUTO 00000KT 1SM R12/P6000FT BR VV004 21/21 A2990 RMK AO2 T02060206 $
KBPT 250624Z AUTO 00000KT 1/4SM R12/1600VP6000FT FG VV003 20/20 A2989 RMK AO2 T02000200 $
KBPT 250608Z AUTO 00000KT 1/2SM R12/1800VP6000FT FG VV004 21/21 A2989 RMK AO2 T02110211 $
KBPT 250553Z AUTO 00000KT 1/4SM R12/1400V4500FT FG VV005 21/21 A2989 RMK AO2 SLP122 T02110211 10244 20206 402940206 51007 $
KBPT 250545Z AUTO 00000KT 3/4SM R12/3500VP6000FT BR VV005 22/22 A2989 RMK AO2 T02170217
KBPT 250543Z AUTO 00000KT 1 1/2SM R12/5500VP6000FT BR SCT005 22/22 A2989 RMK AO2 T02220222
KBPT 250541Z AUTO 00000KT 4SM BR SCT005 22/22 A2989 RMK AO2 T02220222
KBPT 250534Z AUTO 00000KT 2 1/2SM BR SCT005 22/22 A2989 RMK AO2 VIS 3/4V5 T02220222
KBPT 250532Z AUTO 00000KT 1 1/4SM R12/6000VP6000FT BR SCT005 22/22 A2989 RMK AO2 VIS 1/2V5 T02220222
KBPT 250502Z AUTO 00000KT 1/2SM R12/P6000FT FG VV006 22/22 A2989 RMK AO2 T02220222
KBPT 250453Z AUTO 00000KT 1 1/4SM BR CLR 22/22 A2989 RMK AO2 SLP121 T02220222
KBPT 250451Z AUTO 00000KT 1 3/4SM BR CLR 22/22 A2989 RMK AO2
KBPT 250353Z AUTO 00000KT 10SM CLR 23/23 A2990 RMK AO2 SLP124 T02280228
KBPT 250253Z 15005KT 9SM SCT011 23/23 A2987 RMK AO2 SLP115 T02280228 51006
KBPT 250236Z 13004KT 10SM BKN011 23/23 A2987 RMK AO2 T02280228
KBPT 250153Z 13004KT 10SM FEW012 23/23 A2987 RMK AO2 SLP114 T02280228
KBPT 250134Z 14006KT 10SM SCT014 23/23 A2986 RMK AO2 T02280228
KBPT 250112Z 14004KT 10SM BKN014 23/23 A2987 RMK AO2 T02280228
KBPT 250053Z 14004KT 10SM FEW013 23/23 A2987 RMK AO2 SLP114 T02280228
KBPT 250013Z 14007KT 10SM SCT015 SCT020 BKN036 24/23 A2986 RMK AO2 T02390233
KBPT 242353Z 14007KT 10SM SCT020 BKN025 BKN031 24/23 A2985 RMK AO2 SLP109 T02440233 10294 20244 53006
KBPT 242253Z 13008KT 10SM SCT017 BKN024 26/23 A2984 RMK AO2 SLP104 T02560233
KBPT 242153Z 12007KT 10SM SCT030 BKN035 27/23 A2985 RMK AO2 SLP107 T02670233
KBPT 242053Z 11011KT 10SM SCT030 BKN035 29/23 A2984 RMK AO2 SLP103 T02890228 56019 $
KBPT 241953Z 12010KT 10SM SCT028 BKN035 BKN044 29/23 A2984 RMK AO2 SLP103 T02890228
KBPT 241923Z 12009KT 10SM BKN028 BKN034 BKN046 28/23 A2985 RMK AO2 T02780228
KBPT 241853Z 13008KT 10SM SCT030 SCT037 BKN090 28/23 A2986 RMK AO2 SLP112 T02830228
KBPT 241753Z 12011KT 10SM SCT025 BKN043 BKN060 27/22 A2989 RMK AO2 SLP122 60000 T02670222 10278 20206 58003
KBPT 241750Z 13011KT 3/4SM R12/P6000FT HZ SCT025 BKN043 OVC060 27/23 A2989 RMK AO2
KBPT 241653Z 15014KT 10SM SCT026 BKN035 BKN043 27/23 A2992 RMK AO2 SLP130 T02720228
KBPT 241553Z 13010G24KT 10SM SCT026 BKN037 BKN045 26/22 A2992 RMK AO2 PK WND 14028/1537 SLP131 T02610222
KBPT 241453Z 13013G22KT 10SM FEW050 26/22 A2990 RMK AO2 SLP126 60000 T02610222 53007
KBPT 241353Z 12008KT 10SM SCT085 24/22 A2988 RMK AO2 SLP119 T02440222
KBPT 241253Z 10005KT 10SM BKN100 22/21 A2987 RMK AO2 RAB15E25 SLP115 P0000 T02170211
KBPT 241153Z 12004KT 10SM BKN070 BKN090 OVC110 21/20 A2988 RMK AO2 SLP119 60001 70004 T02110200 10228 20206 55002